Time;durP1;ratioP1;P1;durP2;ratioP2;P2;SDS_P1;SDS_P2;PMS_P1;PMS_P2;Temp;Humidity;BMP_temperature;BMP_pressure;BME280_temperature;BME280_humidity;BME280_pressure;Samples;Min_cycle;Max_cycle;Signal;HPM_P1;HPM_P2
2021/03/16 00:02:05;;;;;;;17.33;3.20;;;8.30;90.80;;;;;;5067963;28;20028;-91
2021/03/16 00:04:31;;;;;;;14.93;3.80;;;8.30;90.90;;;;;;5081205;28;20068;-90
2021/03/16 00:06:57;;;;;;;13.07;2.58;;;8.30;90.90;;;;;;5066581;28;20162;-91
2021/03/16 00:09:22;;;;;;;10.25;2.28;;;8.30;91.00;;;;;;5090999;28;20494;-91
2021/03/16 00:11:48;;;;;;;11.57;2.22;;;8.30;91.00;;;;;;5076889;28;20020;-91
2021/03/16 00:14:14;;;;;;;10.63;1.75;;;8.30;91.00;;;;;;5077798;28;20062;-91
2021/03/16 00:16:39;;;;;;;13.25;2.00;;;8.30;91.00;;;;;;5077924;28;20024;-91
2021/03/16 00:19:05;;;;;;;9.60;1.60;;;8.20;90.90;;;;;;5076424;28;20028;-89
2021/03/16 00:21:30;;;;;;;13.55;2.42;;;8.30;91.00;;;;;;5076608;28;20032;-88
2021/03/16 00:23:56;;;;;;;17.50;2.95;;;8.30;91.10;;;;;;5077450;28;20107;-88
2021/03/16 00:26:22;;;;;;;10.82;2.17;;;8.20;91.10;;;;;;5077573;28;20024;-88
2021/03/16 00:28:47;;;;;;;9.85;2.15;;;8.30;91.10;;;;;;5076747;28;20105;-89
2021/03/16 00:31:13;;;;;;;11.48;2.65;;;8.30;91.20;;;;;;5093991;28;20096;-85
2021/03/16 00:33:38;;;;;;;13.32;2.30;;;8.30;91.10;;;;;;5076392;28;20042;-90
2021/03/16 00:36:04;;;;;;;12.30;1.70;;;8.30;90.90;;;;;;5055490;28;20021;-88
2021/03/16 00:38:30;;;;;;;12.73;3.03;;;8.20;91.00;;;;;;5088239;28;20111;-88
2021/03/16 00:40:55;;;;;;;13.55;2.63;;;8.20;91.00;;;;;;5077092;28;20058;-88
2021/03/16 00:43:21;;;;;;;11.23;1.90;;;8.20;90.90;;;;;;5077840;28;20054;-89
2021/03/16 00:45:47;;;;;;;12.57;2.45;;;8.20;91.00;;;;;;5077444;28;20024;-89
2021/03/16 00:48:17;;;;;;;16.80;2.58;;;8.20;91.00;;;;;;5076438;28;20035;-89
2021/03/16 00:50:43;;;;;;;9.60;1.92;;;8.20;91.00;;;;;;5077153;28;20055;-90
2021/03/16 00:53:10;;;;;;;10.93;2.42;;;8.10;91.00;;;;;;5096408;28;20023;-89
2021/03/16 00:55:37;;;;;;;8.65;2.00;;;8.10;91.00;;;;;;5079530;28;20048;-89
2021/03/16 00:58:03;;;;;;;10.88;2.03;;;8.10;91.10;;;;;;5094840;28;20506;-87
2021/03/16 01:00:29;;;;;;;6.55;1.42;;;8.10;91.10;;;;;;5059029;28;20097;-89
2021/03/16 01:02:54;;;;;;;14.48;2.13;;;8.10;91.10;;;;;;5076983;28;20012;-89
2021/03/16 01:05:20;;;;;;;12.95;2.25;;;8.10;91.10;;;;;;5076805;28;20036;-89
2021/03/16 01:07:46;;;;;;;11.45;2.50;;;8.10;91.00;;;;;;5094516;28;20551;-89
2021/03/16 01:10:17;;;;;;;15.60;1.70;;;8.10;91.00;;;;;;5076048;28;20403;-90
2021/03/16 01:12:44;;;;;;;10.88;2.45;;;8.10;91.00;;;;;;5092857;28;20016;-89
2021/03/16 01:15:10;;;;;;;9.68;2.00;;;8.10;91.00;;;;;;5079211;28;20567;-90
2021/03/16 01:17:36;;;;;;;12.65;2.55;;;8.10;91.00;;;;;;5059042;28;20063;-90
2021/03/16 01:20:08;;;;;;;13.68;2.03;;;8.10;91.00;;;;;;5076123;28;20024;-89
2021/03/16 01:22:34;;;;;;;11.25;2.03;;;8.10;90.90;;;;;;5074091;28;20453;-89
2021/03/16 01:24:59;;;;;;;13.27;2.35;;;8.10;90.90;;;;;;5093626;28;20024;-89
2021/03/16 01:27:25;;;;;;;4.03;1.20;;;8.10;91.00;;;;;;5075243;28;20028;-89
2021/03/16 01:29:50;;;;;;;9.32;2.00;;;8.10;91.00;;;;;;5078528;28;20019;-89
2021/03/16 01:32:16;;;;;;;11.48;2.05;;;8.10;91.00;;;;;;5078890;28;20066;-88
2021/03/16 01:34:42;;;;;;;9.07;2.03;;;8.10;91.00;;;;;;5094930;28;20027;-90
2021/03/16 01:37:07;;;;;;;10.93;1.48;;;8.10;91.00;;;;;;5068847;28;20030;-89
2021/03/16 01:39:33;;;;;;;10.25;1.70;;;8.10;90.80;;;;;;5063952;28;20079;-89
2021/03/16 01:41:58;;;;;;;9.57;1.50;;;8.10;90.70;;;;;;5076160;28;20020;-90
2021/03/16 01:44:24;;;;;;;13.65;2.15;;;8.10;90.80;;;;;;5074912;28;20021;-89
2021/03/16 01:46:50;;;;;;;8.93;1.60;;;8.10;90.70;;;;;;5077065;28;20026;-89
2021/03/16 01:49:15;;;;;;;7.50;1.67;;;8.10;90.60;;;;;;5065833;28;20038;-90
2021/03/16 01:51:41;;;;;;;13.27;1.77;;;8.00;90.60;;;;;;5082414;28;20028;-89
2021/03/16 01:54:08;;;;;;;12.35;2.75;;;8.00;90.00;;;;;;5078642;28;20055;-86
2021/03/16 01:56:35;;;;;;;14.75;3.85;;;8.00;90.10;;;;;;5066645;28;20459;-89
2021/03/16 01:59:01;;;;;;;10.05;1.75;;;8.00;90.60;;;;;;5074651;28;20024;-89
2021/03/16 02:01:27;;;;;;;14.52;1.73;;;8.00;90.40;;;;;;5075988;28;20024;-89
2021/03/16 02:03:53;;;;;;;8.68;1.70;;;8.00;90.30;;;;;;5062244;28;20029;-88
2021/03/16 02:06:30;;;;;;;10.02;1.98;;;8.00;90.40;;;;;;5056042;28;20016;-90
2021/03/16 02:09:18;;;;;;;7.35;1.40;;;8.00;90.40;;;;;;5087940;28;20024;-89
2021/03/16 02:11:57;;;;;;;13.20;2.08;;;8.00;90.40;;;;;;5087418;28;20069;-89
2021/03/16 02:14:36;;;;;;;6.75;1.55;;;7.90;90.30;;;;;;5074321;28;20021;-88
2021/03/16 02:17:09;;;;;;;9.02;2.70;;;8.00;90.40;;;;;;5072242;28;20012;-90
2021/03/16 02:19:52;;;;;;;9.02;1.40;;;7.90;90.30;;;;;;5095248;28;20016;-89
2021/03/16 02:22:21;;;;;;;9.85;1.95;;;7.90;90.20;;;;;;5093096;28;20063;-89
2021/03/16 02:25:01;;;;;;;13.05;1.80;;;7.90;90.30;;;;;;5092407;28;20032;-89
2021/03/16 02:27:32;;;;;;;12.55;1.55;;;7.90;90.30;;;;;;5081360;28;20036;-89
2021/03/16 02:30:02;;;;;;;7.57;1.30;;;7.90;90.40;;;;;;5092958;28;20028;-89
2021/03/16 02:32:30;;;;;;;8.52;2.38;;;7.90;90.50;;;;;;5083350;28;20445;-89
2021/03/16 02:35:00;;;;;;;13.65;2.63;;;7.90;90.50;;;;;;5097595;28;20054;-88
2021/03/16 02:37:27;;;;;;;6.75;1.42;;;7.90;90.40;;;;;;5096930;28;20024;-90
2021/03/16 02:39:55;;;;;;;14.00;2.50;;;7.90;90.40;;;;;;5096938;28;20031;-90
2021/03/16 02:42:22;;;;;;;10.68;2.13;;;7.90;90.50;;;;;;5080914;28;20049;-89
2021/03/16 02:44:49;;;;;;;10.07;1.42;;;7.90;90.50;;;;;;5104812;28;20059;-88
2021/03/16 02:47:19;;;;;;;9.05;1.73;;;7.90;90.50;;;;;;5095985;28;20478;-89
2021/03/16 02:49:47;;;;;;;10.13;1.42;;;7.90;90.50;;;;;;5107007;28;20032;-89
2021/03/16 02:52:15;;;;;;;7.53;1.58;;;7.90;90.50;;;;;;5075695;28;20020;-89
2021/03/16 02:54:41;;;;;;;8.70;1.65;;;7.90;90.50;;;;;;5078855;28;20025;-89
2021/03/16 02:57:08;;;;;;;6.95;1.27;;;7.90;90.50;;;;;;5091504;28;20034;-90
2021/03/16 02:59:34;;;;;;;9.55;1.35;;;7.90;90.50;;;;;;5079090;28;20028;-89
2021/03/16 03:02:01;;;;;;;12.25;1.80;;;7.90;90.60;;;;;;5078999;28;20032;-90
2021/03/16 03:04:29;;;;;;;9.30;1.92;;;7.90;90.40;;;;;;5072634;28;20024;-89
2021/03/16 03:06:58;;;;;;;7.53;1.75;;;7.90;90.40;;;;;;5046190;28;20116;-89
2021/03/16 03:09:24;;;;;;;8.38;1.63;;;7.90;90.30;;;;;;5087808;28;20456;-89
2021/03/16 03:11:50;;;;;;;7.78;1.40;;;7.90;90.20;;;;;;5089281;28;20020;-90
2021/03/16 03:14:15;;;;;;;6.93;2.10;;;7.90;90.30;;;;;;5063425;28;20023;-90
2021/03/16 03:16:41;;;;;;;9.23;2.20;;;7.90;90.30;;;;;;5078732;28;20043;-89
2021/03/16 03:19:07;;;;;;;11.52;1.98;;;7.90;90.20;;;;;;5078422;28;20028;-88
2021/03/16 03:21:45;;;;;;;7.82;1.30;;;7.90;90.30;;;;;;5095453;28;20024;-89
2021/03/16 03:24:15;;;;;;;7.07;1.40;;;7.80;90.30;;;;;;5095896;28;20020;-88
2021/03/16 03:26:54;;;;;;;10.43;1.85;;;7.90;90.40;;;;;;5092923;28;20079;-90
2021/03/16 03:29:20;;;;;;;9.60;1.90;;;7.90;90.30;;;;;;5089959;28;20049;-90
2021/03/16 03:31:47;;;;;;;11.15;1.70;;;7.90;90.40;;;;;;5096858;28;20038;-91
2021/03/16 03:34:15;;;;;;;7.28;1.20;;;7.80;90.40;;;;;;5096531;28;20032;-89
2021/03/16 03:36:42;;;;;;;9.32;1.40;;;7.90;90.50;;;;;;5080307;28;20491;-89
2021/03/16 03:39:09;;;;;;;8.02;1.63;;;7.90;90.50;;;;;;5078465;28;20025;-89
2021/03/16 03:41:36;;;;;;;5.93;1.52;;;7.90;90.60;;;;;;5091689;28;20038;-90
2021/03/16 03:44:04;;;;;;;7.22;1.65;;;7.90;90.60;;;;;;5075843;28;20034;-89
2021/03/16 03:46:32;;;;;;;9.65;1.38;;;7.90;90.60;;;;;;5089982;28;20028;-85
2021/03/16 03:49:02;;;;;;;3.45;1.27;;;7.90;90.50;;;;;;5094449;28;20012;-90
2021/03/16 03:51:30;;;;;;;7.45;1.67;;;7.90;90.50;;;;;;5061820;28;20047;-89
2021/03/16 03:53:57;;;;;;;5.18;1.17;;;7.90;90.60;;;;;;5093671;28;20507;-90
2021/03/16 03:56:24;;;;;;;7.70;1.48;;;7.90;90.60;;;;;;5071146;28;20055;-88
2021/03/16 03:58:50;;;;;;;7.35;1.05;;;7.90;90.60;;;;;;5058269;28;20029;-89
2021/03/16 04:01:16;;;;;;;10.95;2.08;;;7.90;90.50;;;;;;5085337;28;20049;-88
2021/03/16 04:03:41;;;;;;;9.77;1.27;;;7.90;90.30;;;;;;5074860;28;20408;-90
2021/03/16 04:06:08;;;;;;;10.70;2.15;;;7.80;90.20;;;;;;5081917;28;20110;-89
2021/03/16 04:08:35;;;;;;;10.75;2.20;;;7.90;90.30;;;;;;5075681;28;20117;-90
2021/03/16 04:11:02;;;;;;;9.00;1.90;;;7.90;90.40;;;;;;5064013;28;20028;-90
2021/03/16 04:13:29;;;;;;;11.20;1.88;;;7.90;90.40;;;;;;5055291;28;20017;-89
2021/03/16 04:15:54;;;;;;;10.63;2.05;;;7.80;90.30;;;;;;5056102;28;20029;-90
2021/03/16 04:18:21;;;;;;;6.88;1.75;;;7.90;90.30;;;;;;5056223;28;20471;-90
2021/03/16 04:20:47;;;;;;;9.18;1.38;;;7.80;90.40;;;;;;5072408;28;20081;-90
2021/03/16 04:23:13;;;;;;;10.63;2.42;;;7.80;90.50;;;;;;5045998;28;20035;-90
2021/03/16 04:25:39;;;;;;;11.32;2.10;;;7.80;90.60;;;;;;5044523;28;20029;-90
2021/03/16 04:28:04;;;;;;;7.47;1.48;;;7.80;90.60;;;;;;5060795;28;20054;-89
2021/03/16 04:30:30;;;;;;;15.85;2.58;;;7.80;90.70;;;;;;5077050;28;20041;-90
2021/03/16 04:32:56;;;;;;;12.27;2.05;;;7.80;90.60;;;;;;5050728;28;20498;-89
2021/03/16 04:35:22;;;;;;;12.73;1.90;;;7.80;90.60;;;;;;5056165;28;20483;-90
2021/03/16 04:37:48;;;;;;;10.57;2.25;;;7.80;90.70;;;;;;5077668;28;20028;-88
2021/03/16 04:40:14;;;;;;;10.05;2.00;;;7.80;90.70;;;;;;5095193;28;20020;-90
2021/03/16 04:42:39;;;;;;;14.73;1.90;;;7.80;90.80;;;;;;5081168;28;20016;-89
2021/03/16 04:45:06;;;;;;;11.93;2.78;;;7.80;90.80;;;;;;5060043;28;20476;-89
2021/03/16 04:47:31;;;;;;;8.60;1.30;;;7.80;90.90;;;;;;5059973;28;20035;-89
2021/03/16 04:49:57;;;;;;;8.57;1.77;;;7.80;90.90;;;;;;5083687;28;20036;-89
2021/03/16 04:52:23;;;;;;;15.43;2.20;;;7.80;90.90;;;;;;5077397;28;20084;-89
2021/03/16 04:54:49;;;;;;;12.32;2.83;;;7.80;90.90;;;;;;5073417;28;20017;-89
2021/03/16 04:57:15;;;;;;;9.10;1.67;;;7.80;90.90;;;;;;5078547;28;20036;-89
2021/03/16 04:59:41;;;;;;;10.93;2.35;;;7.80;90.90;;;;;;5084838;28;20545;-89
2021/03/16 05:02:06;;;;;;;12.82;2.10;;;7.80;90.90;;;;;;5081357;28;20051;-90
2021/03/16 05:04:32;;;;;;;12.07;2.17;;;7.80;90.90;;;;;;5061098;28;20032;-90
2021/03/16 05:06:58;;;;;;;18.33;3.03;;;7.80;90.90;;;;;;5067775;28;20054;-90
2021/03/16 05:09:23;;;;;;;9.48;1.83;;;7.70;90.90;;;;;;5051568;28;20024;-90
2021/03/16 05:11:49;;;;;;;9.35;1.90;;;7.70;91.00;;;;;;5027608;28;20032;-89
2021/03/16 05:14:14;;;;;;;18.88;3.17;;;7.70;91.00;;;;;;5056115;28;20039;-90
2021/03/16 05:16:40;;;;;;;11.43;2.25;;;7.70;90.90;;;;;;5041693;28;20024;-90
2021/03/16 05:19:06;;;;;;;16.70;2.75;;;7.70;91.00;;;;;;5058833;28;20119;-90
2021/03/16 05:21:32;;;;;;;7.95;1.52;;;7.70;90.90;;;;;;5071302;28;20036;-90
2021/03/16 05:23:57;;;;;;;10.93;2.85;;;7.70;90.90;;;;;;5028373;28;20017;-90
2021/03/16 05:26:23;;;;;;;10.40;2.17;;;7.70;91.00;;;;;;5057328;28;20027;-90
2021/03/16 05:28:50;;;;;;;9.10;1.70;;;7.70;90.90;;;;;;5073404;28;20458;-90
2021/03/16 05:31:16;;;;;;;12.43;2.15;;;7.60;91.00;;;;;;5049020;28;20028;-88
2021/03/16 05:33:42;;;;;;;8.70;1.65;;;7.60;91.10;;;;;;5074826;28;20031;-89
2021/03/16 05:36:07;;;;;;;9.40;1.75;;;7.60;91.10;;;;;;5063628;28;20111;-86
2021/03/16 05:38:33;;;;;;;12.07;1.40;;;7.60;91.20;;;;;;5072792;28;20533;-90
2021/03/16 05:41:00;;;;;;;14.13;2.58;;;7.60;91.20;;;;;;5039330;28;20097;-92
2021/03/16 05:43:27;;;;;;;7.60;2.00;;;7.60;91.20;;;;;;5078668;28;20035;-90
2021/03/16 05:45:56;;;;;;;10.52;1.80;;;7.70;91.30;;;;;;5065753;28;20021;-91
2021/03/16 05:48:24;;;;;;;8.52;2.20;;;7.70;91.30;;;;;;5073613;28;20020;-90
2021/03/16 05:50:51;;;;;;;9.30;2.28;;;7.70;91.30;;;;;;5055631;28;20024;-91
2021/03/16 05:53:17;;;;;;;13.75;2.22;;;7.70;91.30;;;;;;5075789;28;20024;-92
2021/03/16 05:55:44;;;;;;;10.88;2.65;;;7.70;91.40;;;;;;5039693;28;20478;-89
2021/03/16 05:58:10;;;;;;;11.82;2.25;;;7.60;91.40;;;;;;5057628;28;20476;-90
2021/03/16 06:00:35;;;;;;;16.58;2.63;;;7.60;91.50;;;;;;5058489;28;20031;-91
2021/03/16 06:03:01;;;;;;;14.25;2.88;;;7.70;91.50;;;;;;5068930;28;20024;-91
2021/03/16 06:05:27;;;;;;;10.85;1.63;;;7.70;91.50;;;;;;5042244;28;20049;-91
2021/03/16 06:07:53;;;;;;;13.23;2.50;;;7.70;91.50;;;;;;5075832;28;20032;-90
2021/03/16 06:10:22;;;;;;;13.35;2.08;;;7.70;91.50;;;;;;5059344;28;20472;-91
2021/03/16 06:12:49;;;;;;;12.68;2.15;;;7.70;91.60;;;;;;5049887;28;20078;-90
2021/03/16 06:15:18;;;;;;;10.32;2.35;;;7.70;91.70;;;;;;5063693;28;20024;-91
2021/03/16 06:17:45;;;;;;;12.13;2.20;;;7.70;91.80;;;;;;5068074;28;20027;-89
2021/03/16 06:20:24;;;;;;;5.47;1.48;;;7.70;91.80;;;;;;5075130;28;20201;-91
2021/03/16 06:23:00;;;;;;;14.73;3.53;;;7.70;91.90;;;;;;5095039;28;20099;-91
2021/03/16 06:25:30;;;;;;;11.05;1.92;;;7.80;91.90;;;;;;5093601;28;20036;-91
2021/03/16 06:28:00;;;;;;;12.43;2.10;;;7.70;92.00;;;;;;5090020;28;20043;-94
2021/03/16 06:30:26;;;;;;;13.63;2.08;;;7.70;92.10;;;;;;5071495;28;20047;-90
2021/03/16 06:32:52;;;;;;;13.32;2.10;;;7.70;92.10;;;;;;5094847;28;20019;-90
2021/03/16 06:35:18;;;;;;;10.60;1.52;;;7.70;92.10;;;;;;5076518;28;20024;-90
2021/03/16 06:38:08;;;;;;;14.80;2.88;;;7.80;92.10;;;;;;5080053;28;20375;-88
2021/03/16 06:40:34;;;;;;;15.50;2.33;;;7.80;92.10;;;;;;5096072;28;20024;-90
2021/03/16 06:43:05;;;;;;;11.10;1.95;;;7.70;92.10;;;;;;5077067;28;20012;-91
2021/03/16 06:45:32;;;;;;;13.43;2.88;;;7.80;92.10;;;;;;5077503;28;20054;-89
2021/03/16 06:48:00;;;;;;;8.02;1.83;;;7.80;92.10;;;;;;5079520;28;20028;-90
2021/03/16 06:50:30;;;;;;;11.18;2.05;;;7.80;92.20;;;;;;5058166;28;20017;-90
2021/03/16 06:52:57;;;;;;;12.45;2.22;;;7.90;92.20;;;;;;5061831;28;20021;-89
2021/03/16 06:55:24;;;;;;;18.92;2.88;;;7.90;92.20;;;;;;5064825;28;20012;-91
2021/03/16 06:57:49;;;;;;;13.38;2.78;;;7.90;92.40;;;;;;5076440;28;20024;-90
2021/03/16 07:00:16;;;;;;;13.07;2.33;;;7.90;92.10;;;;;;5070647;28;20020;-89
2021/03/16 07:02:41;;;;;;;10.20;1.65;;;7.90;92.10;;;;;;5059794;28;20033;-91
2021/03/16 07:05:07;;;;;;;11.80;2.25;;;7.90;92.20;;;;;;5058884;28;20028;-89
2021/03/16 07:07:34;;;;;;;11.80;2.90;;;7.80;92.20;;;;;;5065752;28;20027;-91
2021/03/16 07:10:06;;;;;;;11.68;2.55;;;7.90;92.20;;;;;;5061192;28;20084;-91
2021/03/16 07:12:35;;;;;;;15.25;2.47;;;7.90;92.20;;;;;;5065349;28;20388;-88
2021/03/16 07:15:03;;;;;;;7.65;1.40;;;8.00;92.20;;;;;;5087236;28;20050;-89
2021/03/16 07:17:29;;;;;;;8.73;1.92;;;7.90;92.20;;;;;;5063927;28;20043;-90
2021/03/16 07:20:04;;;;;;;8.80;1.63;;;8.00;92.20;;;;;;5056319;28;20024;-91
2021/03/16 07:22:36;;;;;;;9.77;1.70;;;8.00;92.20;;;;;;5064972;28;20024;-91
2021/03/16 07:25:05;;;;;;;11.13;3.15;;;8.00;92.10;;;;;;5079791;28;20016;-89
2021/03/16 07:27:32;;;;;;;11.95;2.00;;;8.00;92.10;;;;;;5078351;28;20456;-91
2021/03/16 07:29:58;;;;;;;13.13;2.20;;;8.00;92.20;;;;;;5075701;28;20016;-89
2021/03/16 07:32:24;;;;;;;11.73;2.25;;;8.00;92.20;;;;;;5111859;28;20027;-91
2021/03/16 07:34:51;;;;;;;13.25;1.80;;;8.10;92.20;;;;;;5071497;28;20103;-91
2021/03/16 07:37:17;;;;;;;11.90;2.33;;;8.10;92.00;;;;;;5067939;28;20510;-90
2021/03/16 07:39:43;;;;;;;14.10;2.22;;;8.10;91.80;;;;;;5057116;28;20098;-89
2021/03/16 07:42:10;;;;;;;11.57;1.88;;;8.10;91.80;;;;;;5095649;28;20546;-89
2021/03/16 07:44:43;;;;;;;11.18;2.17;;;8.10;91.90;;;;;;5056560;28;20034;-90
2021/03/16 07:47:09;;;;;;;17.50;2.97;;;8.20;92.30;;;;;;5077907;28;20012;-89
2021/03/16 07:49:37;;;;;;;12.93;2.22;;;8.20;92.10;;;;;;5096089;28;20530;-91
2021/03/16 07:52:14;;;;;;;13.90;2.28;;;8.20;92.00;;;;;;5093733;28;20020;-90
2021/03/16 07:54:41;;;;;;;14.07;3.20;;;8.20;92.00;;;;;;5072924;28;20016;-91
2021/03/16 07:57:07;;;;;;;15.88;2.72;;;8.20;91.80;;;;;;5081442;28;20074;-88
2021/03/16 07:59:35;;;;;;;12.60;2.20;;;8.20;91.80;;;;;;5092074;28;20055;-89
2021/03/16 08:02:02;;;;;;;8.80;1.75;;;8.30;91.80;;;;;;5093768;28;20024;-91
2021/03/16 08:04:36;;;;;;;12.52;2.70;;;8.30;91.90;;;;;;5077084;28;20016;-89
2021/03/16 08:07:08;;;;;;;13.63;2.22;;;8.30;91.90;;;;;;5059776;28;20020;-89
2021/03/16 08:09:55;;;;;;;11.48;2.42;;;8.30;91.90;;;;;;5071469;28;20028;-89
2021/03/16 08:12:25;;;;;;;13.10;2.08;;;8.30;91.70;;;;;;5043047;28;20074;-85
2021/03/16 08:14:51;;;;;;;12.07;2.25;;;8.40;91.60;;;;;;5075021;28;20023;-85
2021/03/16 08:17:27;;;;;;;14.25;1.90;;;8.40;91.60;;;;;;5074745;28;20379;-87
2021/03/16 08:19:52;;;;;;;14.88;2.22;;;8.30;91.50;;;;;;5083750;28;20028;-91
2021/03/16 08:22:20;;;;;;;10.68;1.70;;;8.40;91.50;;;;;;5090623;28;20058;-93
2021/03/16 08:24:46;;;;;;;10.13;2.10;;;8.40;91.80;;;;;;5091886;28;20028;-94
2021/03/16 08:27:15;;;;;;;15.05;2.25;;;8.50;91.50;;;;;;5077654;28;20024;-95
2021/03/16 08:29:46;;;;;;;9.27;1.85;;;8.50;91.20;;;;;;5096656;28;20075;-95
2021/03/16 08:32:16;;;;;;;10.43;1.77;;;8.50;91.10;;;;;;5102695;28;20020;-94
2021/03/16 08:34:42;;;;;;;8.63;1.70;;;8.50;91.30;;;;;;5094305;28;20016;-92
2021/03/16 08:37:19;;;;;;;7.47;1.70;;;8.60;91.40;;;;;;5095437;28;20032;-93
2021/03/16 08:39:44;;;;;;;5.82;1.38;;;8.60;91.40;;;;;;5077381;28;20039;-91
2021/03/16 08:42:10;;;;;;;9.52;2.63;;;8.60;91.50;;;;;;5077309;28;20024;-91
2021/03/16 08:44:40;;;;;;;9.88;2.22;;;8.70;91.40;;;;;;5040960;28;20478;-93
2021/03/16 08:47:20;;;;;;;9.00;1.63;;;8.70;91.30;;;;;;5064995;28;20020;-92
2021/03/16 08:49:47;;;;;;;10.95;2.30;;;8.80;91.40;;;;;;5059932;28;20376;-93
2021/03/16 08:52:23;;;;;;;11.90;1.85;;;8.80;91.40;;;;;;5077121;28;20122;-93
2021/03/16 08:54:50;;;;;;;11.48;2.67;;;8.80;91.30;;;;;;5068003;28;20497;-92
2021/03/16 08:57:27;;;;;;;7.80;1.98;;;8.80;91.20;;;;;;5070746;28;20019;-92
2021/03/16 08:59:57;;;;;;;15.55;1.90;;;8.90;91.00;;;;;;5057718;28;20078;-91
2021/03/16 09:02:28;;;;;;;8.68;2.22;;;8.90;90.70;;;;;;5088777;28;20020;-93
2021/03/16 09:04:55;;;;;;;;;;;8.90;90.70;;;;;;5077006;28;20016;-91
2021/03/16 09:07:35;;;;;;;14.85;2.40;;;8.90;90.60;;;;;;5065222;28;19909;-90
2021/03/16 09:10:18;;;;;;;13.85;2.30;;;8.90;90.50;;;;;;5047955;28;20028;-91
2021/03/16 09:12:46;;;;;;;10.48;2.05;;;8.90;90.60;;;;;;5070691;28;20051;-90
2021/03/16 09:15:38;;;;;;;10.93;2.10;;;8.90;90.40;;;;;;5093991;28;20016;-90
2021/03/16 09:18:05;;;;;;;12.48;2.33;;;9.00;90.20;;;;;;5038074;28;20122;-92
2021/03/16 09:20:37;;;;;;;13.13;2.40;;;9.00;90.20;;;;;;5084148;28;20025;-91
2021/03/16 09:23:13;;;;;;;7.75;1.75;;;9.00;90.30;;;;;;5094268;28;20565;-93
2021/03/16 09:25:40;;;;;;;10.20;2.53;;;9.00;90.40;;;;;;5089160;28;20056;-90
2021/03/16 09:28:08;;;;;;;8.60;1.83;;;9.10;90.50;;;;;;5086421;28;20041;-93
2021/03/16 09:30:55;;;;;;;10.30;2.28;;;9.10;90.60;;;;;;5089891;28;20073;-92
2021/03/16 09:33:22;;;;;;;9.48;1.70;;;9.20;90.70;;;;;;5092432;28;20069;-94
2021/03/16 09:35:58;;;;;;;8.93;2.00;;;9.30;90.30;;;;;;5108734;28;20027;-94
2021/03/16 09:38:24;;;;;;;9.27;1.85;;;9.40;90.30;;;;;;5090306;28;20027;-91
2021/03/16 09:40:50;;;;;;;8.32;2.22;;;9.40;90.20;;;;;;5091814;28;20024;-91
2021/03/16 09:43:22;;;;;;;10.43;1.90;;;9.50;89.10;;;;;;5104705;28;20027;-92
2021/03/16 09:45:53;;;;;;;8.65;1.52;;;9.60;89.20;;;;;;5085337;28;20020;-91
2021/03/16 09:48:21;;;;;;;8.45;1.70;;;9.60;89.20;;;;;;5078536;28;20028;-92
2021/03/16 09:50:47;;;;;;;9.93;1.77;;;9.60;88.80;;;;;;5094845;28;20031;-91
2021/03/16 09:53:17;;;;;;;12.23;2.63;;;9.70;87.80;;;;;;5076076;28;20020;-91
2021/03/16 09:55:43;;;;;;;10.48;2.08;;;9.70;87.40;;;;;;5083331;28;20051;-90
2021/03/16 09:58:22;;;;;;;7.60;1.90;;;9.70;87.30;;;;;;5055491;28;20111;-91
2021/03/16 10:00:50;;;;;;;12.85;2.22;;;9.80;87.50;;;;;;5079402;28;20062;-91
2021/03/16 10:03:19;;;;;;;8.88;2.47;;;9.80;86.60;;;;;;5093556;28;20029;-90
2021/03/16 10:05:46;;;;;;;10.20;1.88;;;9.80;86.70;;;;;;5089712;28;20498;-90
2021/03/16 10:08:32;;;;;;;10.60;1.85;;;9.80;86.00;;;;;;5076403;28;20394;-92
2021/03/16 10:10:58;;;;;;;7.60;1.55;;;9.80;86.10;;;;;;5092036;28;20036;-92
2021/03/16 10:13:29;;;;;;;8.55;1.60;;;9.70;86.40;;;;;;5094141;28;20487;-94
2021/03/16 10:15:55;;;;;;;10.57;1.65;;;9.80;85.80;;;;;;5074387;28;20370;-91
2021/03/16 10:18:24;;;;;;;4.82;1.25;;;9.70;86.20;;;;;;5065802;28;20055;-92
2021/03/16 10:20:51;;;;;;;8.13;1.80;;;9.80;86.50;;;;;;5092642;28;20011;-90
2021/03/16 10:23:19;;;;;;;5.93;1.27;;;9.80;85.90;;;;;;5076257;28;20039;-89
2021/03/16 10:25:59;;;;;;;7.43;1.30;;;9.80;86.40;;;;;;5096190;28;20019;-91
2021/03/16 10:28:39;;;;;;;8.10;1.50;;;9.90;86.70;;;;;;5084633;28;20024;-92
2021/03/16 10:31:11;;;;;;;9.45;1.35;;;9.90;85.30;;;;;;5076399;28;20381;-91
2021/03/16 10:33:38;;;;;;;6.55;1.40;;;10.00;85.10;;;;;;5076269;28;20148;-90
2021/03/16 10:36:04;;;;;;;8.60;1.98;;;10.00;85.50;;;;;;5091842;28;20020;-92
2021/03/16 10:38:30;;;;;;;8.10;1.10;;;10.00;85.30;;;;;;5076182;28;20039;-91
2021/03/16 10:40:56;;;;;;;7.45;1.60;;;10.10;85.90;;;;;;5075828;28;20460;-91
2021/03/16 10:43:21;;;;;;;7.53;1.58;;;10.10;84.60;;;;;;5048234;28;20146;-91
2021/03/16 10:45:47;;;;;;;8.23;1.63;;;10.10;84.70;;;;;;5073289;28;20054;-92
2021/03/16 10:48:12;;;;;;;6.15;1.20;;;10.20;85.10;;;;;;5030317;28;20477;-88
2021/03/16 10:50:38;;;;;;;7.47;1.42;;;10.20;85.70;;;;;;5058459;28;20498;-92
2021/03/16 10:53:04;;;;;;;7.72;1.25;;;10.30;85.60;;;;;;5060317;28;20527;-92
2021/03/16 10:55:29;;;;;;;5.72;1.55;;;10.40;85.20;;;;;;5084807;28;20025;-92
2021/03/16 10:57:55;;;;;;;7.95;1.33;;;10.40;82.80;;;;;;5040192;28;20032;-91
2021/03/16 11:00:21;;;;;;;5.32;1.25;;;10.50;82.50;;;;;;5051549;28;20049;-92
2021/03/16 11:02:47;;;;;;;6.97;1.38;;;10.60;82.50;;;;;;5066911;28;20012;-93
2021/03/16 11:05:13;;;;;;;6.07;1.23;;;10.60;82.70;;;;;;5092846;28;20024;-91
2021/03/16 11:07:38;;;;;;;8.05;1.65;;;10.70;83.00;;;;;;5102679;28;20028;-88
2021/03/16 11:10:05;;;;;;;8.75;1.80;;;10.80;80.30;;;;;;5093502;28;20016;-91
2021/03/16 11:12:31;;;;;;;8.45;1.73;;;10.90;80.20;;;;;;5118873;28;20107;-91
2021/03/16 11:14:56;;;;;;;6.22;1.45;;;10.90;79.30;;;;;;5084864;28;20058;-91
2021/03/16 11:17:22;;;;;;;4.45;1.30;;;10.90;77.50;;;;;;5097861;28;20032;-90
2021/03/16 11:19:48;;;;;;;7.32;1.70;;;11.00;78.40;;;;;;5078385;28;20045;-89
2021/03/16 11:22:13;;;;;;;8.13;1.38;;;11.00;79.30;;;;;;5081794;28;20054;-92
2021/03/16 11:24:40;;;;;;;7.63;1.30;;;11.00;78.30;;;;;;5079817;28;20027;-92
2021/03/16 11:27:05;;;;;;;7.95;1.67;;;11.00;77.90;;;;;;5071303;28;20028;-86
2021/03/16 11:29:31;;;;;;;8.35;1.58;;;11.00;78.90;;;;;;5073854;28;20024;-93
2021/03/16 11:31:57;;;;;;;9.90;1.90;;;11.10;79.30;;;;;;5075898;28;20024;-92
2021/03/16 11:34:22;;;;;;;6.10;1.15;;;11.10;77.60;;;;;;5073725;28;20023;-92
2021/03/16 11:36:48;;;;;;;7.05;1.50;;;11.10;76.00;;;;;;5057655;28;20036;-93
2021/03/16 11:39:14;;;;;;;8.05;1.38;;;11.10;76.90;;;;;;5088482;28;20637;-93
2021/03/16 11:41:39;;;;;;;6.55;1.20;;;11.10;76.40;;;;;;5078288;28;20370;-93
2021/03/16 11:44:05;;;;;;;10.50;1.17;;;11.10;75.80;;;;;;5079098;28;20032;-91
2021/03/16 11:46:31;;;;;;;5.43;1.20;;;11.20;76.70;;;;;;5097325;28;20044;-94
2021/03/16 11:48:56;;;;;;;10.52;1.63;;;11.20;76.00;;;;;;5078841;28;20107;-85
2021/03/16 11:51:22;;;;;;;5.90;1.02;;;11.20;74.20;;;;;;5053593;28;20546;-85
2021/03/16 11:53:48;;;;;;;6.57;1.92;;;11.30;75.70;;;;;;5061229;28;20110;-94
2021/03/16 11:56:13;;;;;;;8.63;1.65;;;11.30;74.80;;;;;;5059270;28;20093;-94
2021/03/16 11:58:39;;;;;;;7.85;1.50;;;11.30;75.60;;;;;;5079936;28;20059;-93
2021/03/16 12:01:05;;;;;;;9.05;1.90;;;11.30;76.50;;;;;;5083343;28;20031;-93
2021/03/16 12:03:30;;;;;;;7.60;2.03;;;11.40;75.90;;;;;;5065438;28;20029;-93
2021/03/16 12:05:56;;;;;;;11.13;1.90;;;11.30;76.30;;;;;;5057424;28;20461;-93
2021/03/16 12:08:22;;;;;;;9.00;1.80;;;11.30;77.10;;;;;;5072443;28;20067;-93
2021/03/16 12:10:48;;;;;;;7.50;1.85;;;11.30;77.30;;;;;;5061036;28;20028;-93
2021/03/16 12:13:14;;;;;;;9.30;1.60;;;11.30;78.60;;;;;;5081483;28;20068;-92
2021/03/16 12:15:40;;;;;;;7.55;1.90;;;11.30;79.10;;;;;;5094397;28;20490;-85
2021/03/16 12:18:05;;;;;;;6.68;1.60;;;11.30;78.90;;;;;;5080355;28;20019;-94
2021/03/16 12:20:31;;;;;;;9.77;1.80;;;11.30;78.00;;;;;;5098180;28;20024;-93
2021/03/16 12:22:57;;;;;;;5.65;1.02;;;11.30;77.00;;;;;;5074022;28;20075;-93
2021/03/16 12:25:24;;;;;;;5.07;1.45;;;11.40;77.40;;;;;;5083908;28;20359;-93
2021/03/16 12:27:51;;;;;;;5.15;1.50;;;11.40;78.10;;;;;;5067797;28;20027;-92
2021/03/16 12:30:17;;;;;;;6.72;1.63;;;11.40;77.90;;;;;;5067183;28;20039;-93
2021/03/16 12:32:43;;;;;;;5.35;1.40;;;11.40;77.90;;;;;;5076823;28;20093;-90
2021/03/16 12:35:11;;;;;;;7.78;1.45;;;11.50;78.10;;;;;;5073506;28;20024;-92
2021/03/16 12:37:37;;;;;;;5.38;1.45;;;11.50;77.90;;;;;;5086330;28;20020;-91
2021/03/16 12:40:04;;;;;;;7.35;2.08;;;11.60;78.20;;;;;;5086940;28;20413;-92
2021/03/16 12:42:31;;;;;;;6.45;1.25;;;11.60;76.60;;;;;;5089731;28;20020;-93
2021/03/16 12:44:57;;;;;;;8.98;1.50;;;11.60;76.40;;;;;;5076096;28;20528;-93
2021/03/16 12:47:23;;;;;;;6.30;1.92;;;11.70;76.00;;;;;;5077546;28;20109;-93
2021/03/16 12:49:49;;;;;;;6.30;1.35;;;11.70;76.00;;;;;;5077039;28;20032;-93
2021/03/16 12:52:15;;;;;;;8.95;1.70;;;11.70;76.00;;;;;;5040145;28;20136;-93
2021/03/16 12:54:40;;;;;;;9.15;1.85;;;11.70;75.50;;;;;;5040377;28;20035;-93